Mont Saint Michel — FNMT — position and weather

sailwx.info

Track history (hours):
 
Tides and Currents Weather Stations Pressure Air Temp Water Temp Dewpoint Dewpoint Depression Visibility Wind Speed Wind Dir Waves Ship Positions

Mont Saint Michel

Last reported at 2017-Mar-29 22:29 UTC. Time now 2017-Mar-30 00:52 UTC.
Position N 50°36' W 000°56'.

Length 173 m; beam 29 m.

Type: Ship. MMSI: 227023100.

Date/timePositionNaut miles runAvg speedWind from/ knotsBaromVisibWave heightAir tempDewpointWater temp
2017-Mar-29 22:29N 50°36' W 000°56'1314.2
2017-Mar-29 21:33N 50°47' W 001°06'2 1.7
2017-Mar-29 20:33N 50°49' W 001°06'0 0.0
2017-Mar-29 19:33N 50°49' W 001°06'0 0.0
2017-Mar-29 18:33N 50°49' W 001°06'3 3.0
2017-Mar-29 17:33N 50°46' W 001°05'5418.1
2017-Mar-29 14:33N 49°55' W 000°35'1818.2
2017-Mar-29 13:33N 49°38' W 000°25'1817.6
2017-Mar-29 12:33N 49°22' W 000°15'4 4.5
2017-Mar-29 11:33N 49°17' W 000°15'0 0.0
2017-Mar-29 10:33N 49°17' W 000°15'0 0.0
2017-Mar-29 09:34N 49°17' W 000°15'0 0.0
2017-Mar-29 08:33N 49°17' W 000°15'0 0.0
2017-Mar-29 07:33N 49°17' W 000°15'0 0.0
2017-Mar-29 06:33N 49°17' W 000°15'0 0.0
2017-Mar-29 05:33N 49°17' W 000°15'9 9.4
2017-Mar-29 04:33N 49°27' W 000°17'1514.9
2017-Mar-29 03:33N 49°41' W 000°24'6014.4
2017-Mar-28 23:26N 50°37' W 000°57'1213.4
2017-Mar-28 22:33N 50°47' W 001°06'2 1.9
2017-Mar-28 21:33N 50°49' W 001°06'0 0.0
2017-Mar-28 20:33N 50°49' W 001°06'3 3.1
2017-Mar-28 19:33N 50°46' W 001°05'3918.4
2017-Mar-28 17:25N 50°09' W 000°42'1719.6
2017-Mar-28 16:33N 49°53' W 000°32'2019.8
2017-Mar-28 15:34N 49°35' W 000°20'1817.9
2017-Mar-28 14:33N 49°18' W 000°15'0 0.2
2017-Mar-28 13:33N 49°17' W 000°15'2 2.2
2017-Mar-28 12:33N 49°20' W 000°15'2020.3
2017-Mar-28 11:33N 49°39' W 000°21'6219.5
2017-Mar-28 08:22N 50°37' W 000°57'1215.2
2017-Mar-28 07:34N 50°48' W 001°07'1 1.1
2017-Mar-28 06:33N 50°49' W 001°06'0 0.1
2017-Mar-28 05:33N 50°49' W 001°06'2211.0
2017-Mar-28 03:32N 50°28' W 000°53'1111.3
2017-Mar-28 02:33N 50°18' W 000°47'1211.4
2017-Mar-28 01:32N 50°07' W 000°40'1111.6
2017-Mar-28 00:33N 49°56' W 000°33'1211.7
2017-Mar-27 23:33N 49°46' W 000°26'1111.4
2017-Mar-27 22:33N 49°35' W 000°21'1111.4
2017-Mar-27 21:33N 49°24' W 000°16'7 6.6
2017-Mar-27 20:33N 49°17' W 000°15'0 0.0
2017-Mar-27 19:33N 49°17' W 000°15'1010.0
2017-Mar-27 18:34N 49°27' W 000°18'2020.3
2017-Mar-27 17:34N 49°45' W 000°33'1919.2
2017-Mar-27 16:34N 50°02' W 000°45'1919.1
2017-Mar-27 15:34N 50°20' W 000°54'1919.2
2017-Mar-27 14:34N 50°39' W 000°59'1010.3
2017-Mar-27 13:33N 50°49' W 001°06'0 0.0
2017-Mar-27 12:33N 50°49' W 001°06'4 4.1
2017-Mar-27 11:34N 50°45' W 001°05'3718.3
2017-Mar-27 09:34N 50°11' W 000°41'1919.2
2017-Mar-27 08:34N 49°53' W 000°30'2020.3
2017-Mar-27 07:34N 49°34' W 000°22'1717.1
2017-Mar-27 06:33N 49°17' W 000°15'0 0.0
2017-Mar-27 05:33N 49°17' W 000°15'0 0.1
2017-Mar-27 04:33N 49°17' W 000°15'1313.5
2017-Mar-27 03:34N 49°30' W 000°21'1615.6
2017-Mar-27 02:34N 49°44' W 000°31'6014.9
2017-Mar-26 22:30N 50°42' W 001°01'8 8.3
2017-Mar-26 21:33N 50°49' W 001°06'0 0.0
2017-Mar-26 20:34N 50°49' W 001°06'5 5.4
2017-Mar-26 19:33N 50°44' W 001°03'1918.2
2017-Mar-26 18:31N 50°26' W 000°51'1818.7
2017-Mar-26 17:33N 50°09' W 000°47'1818.2
2017-Mar-26 16:33N 49°52' W 000°36'1918.8
2017-Mar-26 15:33N 49°35' W 000°23'1817.5
2017-Mar-26 14:33N 49°18' W 000°15'1 0.8
2017-Mar-26 13:33N 49°17' W 000°15'2 1.7
2017-Mar-26 12:33N 49°19' W 000°15'1918.7
2017-Mar-26 11:34N 49°37' W 000°24'1919.3
2017-Mar-26 10:33N 49°55' W 000°35'4320.1
2017-Mar-26 08:25N 50°35' W 000°57'1416.5
2017-Mar-26 07:33N 50°48' W 001°07'1 1.0
2017-Mar-26 06:33N 50°49' W 001°06'1 0.6
2017-Mar-26 05:33N 50°49' W 001°07'4714.1
2017-Mar-26 02:12N 50°04' W 000°43'1014.6
2017-Mar-26 01:33N 49°55' W 000°37'1313.2
2017-Mar-26 00:34N 49°43' W 000°30'1110.7
2017-Mar-25 23:33N 49°33' W 000°23'1110.8
2017-Mar-25 22:33N 49°23' W 000°16'6 5.7
2017-Mar-25 21:33N 49°17' W 000°15'0 0.0
2017-Mar-25 20:33N 49°17' W 000°15'1212.2
2017-Mar-25 19:33N 49°29' W 000°19'1918.5
2017-Mar-25 18:33N 49°46' W 000°30'5919.8
2017-Mar-25 15:33N 50°43' W 000°59'7 7.2
2017-Mar-25 14:34N 50°49' W 001°06'0 0.0
2017-Mar-25 13:34N 50°49' W 001°06'5 5.2
2017-Mar-25 12:34N 50°44' W 001°04'5518.1
2017-Mar-25 09:33N 49°53' W 000°33'1919.3
2017-Mar-25 08:33N 49°35' W 000°22'1818.3
2017-Mar-25 07:33N 49°17' W 000°15'0 0.1
2017-Mar-25 06:33N 49°17' W 000°15'0 0.0
2017-Mar-25 05:33N 49°17' W 000°15'1313.4
2017-Mar-25 04:33N 49°30' W 000°20'1515.0
2017-Mar-25 03:34N 49°44' W 000°29'6115.2
2017-Mar-24 23:34N 50°41' W 001°01'8 7.9
2017-Mar-24 22:33N 50°49' W 001°06'0 0.0
2017-Mar-24 21:33N 50°49' W 001°06'5 4.7
2017-Mar-24 20:33N 50°44' W 001°04'5718.9
2017-Mar-24 17:33N 49°51' W 000°32'1919.4
2017-Mar-24 16:34N 49°33' W 000°22'1616.2
2017-Mar-24 15:33N 49°17' W 000°15'0 0.1
2017-Mar-24 14:33N 49°17' W 000°15'2 2.4
2017-Mar-24 13:33N 49°20' W 000°14'1918.6
2017-Mar-24 12:33N 49°38' W 000°22'1818.0
2017-Mar-24 11:33N 49°55' W 000°32'5518.4
2017-Mar-24 08:33N 50°45' W 001°05'3 3.3
2017-Mar-24 07:34N 50°49' W 001°06'0 0.1
2017-Mar-24 06:34N 50°49' W 001°06'4912.2
2017-Mar-24 02:33N 50°03' W 000°40'1110.7
2017-Mar-24 01:33N 49°53' W 000°34'1111.2
2017-Mar-24 00:33N 49°42' W 000°28'1110.6
2017-Mar-23 23:32N 49°32' W 000°22'1010.6
2017-Mar-23 22:33N 49°23' W 000°16'5 5.2
2017-Mar-23 21:33N 49°17' W 000°15'0 0.0
2017-Mar-23 20:33N 49°17' W 000°15'1110.8
2017-Mar-23 19:33N 49°28' W 000°18'1919.5
2017-Mar-23 18:33N 49°46' W 000°29'5919.6
2017-Mar-23 15:34N 50°42' W 000°58'8 8.4
2017-Mar-23 14:33N 50°49' W 001°06'0 0.0
2017-Mar-23 13:33N 50°49' W 001°06'5 4.8
2017-Mar-23 12:33N 50°44' W 001°04'4317.3
2017-Mar-23 10:03N 50°04' W 000°37'1121.2
2017-Mar-23 09:33N 49°55' W 000°30'2120.7
2017-Mar-23 08:33N 49°35' W 000°21'1818.1
2017-Mar-23 07:34N 49°17' W 000°15'0 0.0
2017-Mar-23 06:33N 49°17' W 000°15'0 0.1
2017-Mar-23 05:34N 49°17' W 000°15'1514.7
2017-Mar-23 04:34N 49°32' W 000°20'1616.2
2017-Mar-23 03:33N 49°47' W 000°28'5714.2
2017-Mar-22 23:33N 50°40' W 000°58'10 9.9
2017-Mar-22 22:34N 50°49' W 001°06'0 0.1
2017-Mar-22 21:33N 50°49' W 001°06'0 0.0
2017-Mar-22 20:33N 50°49' W 001°06'0 0.0
2017-Mar-22 19:33N 50°49' W 001°06'4 4.4
2017-Mar-22 18:34N 50°44' W 001°04'5217.5
2017-Mar-22 15:33N 49°57' W 000°31'1818.2
2017-Mar-22 14:34N 49°39' W 000°23'2019.6
2017-Mar-22 13:33N 49°20' W 000°14'3 3.1
2017-Mar-22 12:33N 49°17' W 000°15'0 0.0
2017-Mar-22 11:33N 49°17' W 000°15'0 0.0
2017-Mar-22 10:33N 49°17' W 000°15'0 0.0
2017-Mar-22 09:33N 49°17' W 000°15'0 0.0
2017-Mar-22 08:33N 49°17' W 000°15'0 0.0
2017-Mar-22 07:33N 49°17' W 000°15'0 0.0
2017-Mar-22 06:33N 49°17' W 000°15'10 9.6
2017-Mar-22 05:33N 49°27' W 000°17'1313.4
2017-Mar-22 04:34N 49°40' W 000°24'1413.5
2017-Mar-22 03:33N 49°52' W 000°32'4813.6
2017-Mar-22 00:04N 50°37' W 000°57'714.0
2017-Mar-21 23:33N 50°43' W 001°01'6 6.1
2017-Mar-21 22:33N 50°49' W 001°06'0 0.0
2017-Mar-21 21:33N 50°49' W 001°06'4 3.9
2017-Mar-21 20:34N 50°45' W 001°05'4517.9
2017-Mar-21 18:03N 50°04' W 000°37'919.0
2017-Mar-21 17:33N 49°55' W 000°33'1919.0
2017-Mar-21 16:33N 49°37' W 000°23'1818.3
2017-Mar-21 15:33N 49°19' W 000°14'2 2.0
2017-Mar-21 14:34N 49°17' W 000°15'1 0.8
2017-Mar-21 13:33N 49°18' W 000°15'1918.7
2017-Mar-21 12:33N 49°36' W 000°23'6419.7
2017-Mar-21 09:19N 50°36' W 000°57'1115.2
2017-Mar-21 08:34N 50°46' W 001°05'3 2.7
2017-Mar-21 07:33N 50°49' W 001°06'0 0.0
2017-Mar-21 06:33N 50°49' W 001°06'5012.4
2017-Mar-21 02:33N 50°02' W 000°39'1010.3
2017-Mar-21 01:33N 49°52' W 000°34'1110.9
2017-Mar-21 00:33N 49°42' W 000°27'1111.4
2017-Mar-20 23:33N 49°32' W 000°22'1110.6
2017-Mar-20 22:33N 49°22' W 000°15'5 4.6
2017-Mar-20 21:33N 49°17' W 000°15'0 0.0
2017-Mar-20 20:33N 49°17' W 000°15'1110.8
2017-Mar-20 19:33N 49°28' W 000°15'1919.0
2017-Mar-20 18:33N 49°46' W 000°26'5618.6
2017-Mar-20 15:32N 50°38' W 000°59'1211.9
2017-Mar-20 14:33N 50°49' W 001°06'0 0.0
2017-Mar-20 13:33N 50°49' W 001°06'3 3.4
2017-Mar-20 12:34N 50°45' W 001°05'5618.8
2017-Mar-20 09:33N 49°52' W 000°38'2120.6
2017-Mar-20 08:34N 49°33' W 000°24'1717.1
2017-Mar-20 07:33N 49°17' W 000°15'0 0.0
2017-Mar-20 06:34N 49°17' W 000°15'0 0.1
2017-Mar-20 05:34N 49°17' W 000°15'1413.7
2017-Mar-20 04:34N 49°31' W 000°19'1413.9
2017-Mar-20 03:33N 49°44' W 000°23'1413.6
2017-Mar-20 02:33N 49°58' W 000°25'5016.6
2017-Mar-19 23:33N 50°43' W 000°59'7 7.3
2017-Mar-19 22:33N 50°49' W 001°06'  
Track history (hours):
 
Tides and Currents Weather Stations Pressure Air Temp Water Temp Dewpoint Dewpoint Depression Visibility Wind Speed Wind Dir Waves Ship Positions

Mont Saint Michel

Last reported at 2017-Mar-29 22:29 UTC. Time now 2017-Mar-30 00:52 UTC.
Position N 50°36' W 000°56'.

Length 173 m; beam 29 m.

Type: Ship. MMSI: 227023100.

Date/timePositionNaut miles runAvg speedWind from/ knotsBaromVisibWave heightAir tempDewpointWater temp
2017-Mar-29 22:29N 50°36' W 000°56'1314.2
2017-Mar-29 21:33N 50°47' W 001°06'2 1.7
2017-Mar-29 20:33N 50°49' W 001°06'0 0.0
2017-Mar-29 19:33N 50°49' W 001°06'0 0.0
2017-Mar-29 18:33N 50°49' W 001°06'3 3.0
2017-Mar-29 17:33N 50°46' W 001°05'5418.1
2017-Mar-29 14:33N 49°55' W 000°35'1818.2
2017-Mar-29 13:33N 49°38' W 000°25'1817.6
2017-Mar-29 12:33N 49°22' W 000°15'4 4.5
2017-Mar-29 11:33N 49°17' W 000°15'0 0.0
2017-Mar-29 10:33N 49°17' W 000°15'0 0.0
2017-Mar-29 09:34N 49°17' W 000°15'0 0.0
2017-Mar-29 08:33N 49°17' W 000°15'0 0.0
2017-Mar-29 07:33N 49°17' W 000°15'0 0.0
2017-Mar-29 06:33N 49°17' W 000°15'0 0.0
2017-Mar-29 05:33N 49°17' W 000°15'9 9.4
2017-Mar-29 04:33N 49°27' W 000°17'1514.9
2017-Mar-29 03:33N 49°41' W 000°24'6014.4
2017-Mar-28 23:26N 50°37' W 000°57'1213.4
2017-Mar-28 22:33N 50°47' W 001°06'2 1.9
2017-Mar-28 21:33N 50°49' W 001°06'0 0.0
2017-Mar-28 20:33N 50°49' W 001°06'3 3.1
2017-Mar-28 19:33N 50°46' W 001°05'3918.4
2017-Mar-28 17:25N 50°09' W 000°42'1719.6
2017-Mar-28 16:33N 49°53' W 000°32'2019.8
2017-Mar-28 15:34N 49°35' W 000°20'1817.9
2017-Mar-28 14:33N 49°18' W 000°15'0 0.2
2017-Mar-28 13:33N 49°17' W 000°15'2 2.2
2017-Mar-28 12:33N 49°20' W 000°15'2020.3
2017-Mar-28 11:33N 49°39' W 000°21'6219.5
2017-Mar-28 08:22N 50°37' W 000°57'1215.2
2017-Mar-28 07:34N 50°48' W 001°07'1 1.1
2017-Mar-28 06:33N 50°49' W 001°06'0 0.1
2017-Mar-28 05:33N 50°49' W 001°06'2211.0
2017-Mar-28 03:32N 50°28' W 000°53'1111.3
2017-Mar-28 02:33N 50°18' W 000°47'1211.4
2017-Mar-28 01:32N 50°07' W 000°40'1111.6
2017-Mar-28 00:33N 49°56' W 000°33'1211.7
2017-Mar-27 23:33N 49°46' W 000°26'1111.4
2017-Mar-27 22:33N 49°35' W 000°21'1111.4
2017-Mar-27 21:33N 49°24' W 000°16'7 6.6
2017-Mar-27 20:33N 49°17' W 000°15'0 0.0
2017-Mar-27 19:33N 49°17' W 000°15'1010.0
2017-Mar-27 18:34N 49°27' W 000°18'2020.3
2017-Mar-27 17:34N 49°45' W 000°33'1919.2
2017-Mar-27 16:34N 50°02' W 000°45'1919.1
2017-Mar-27 15:34N 50°20' W 000°54'1919.2
2017-Mar-27 14:34N 50°39' W 000°59'1010.3
2017-Mar-27 13:33N 50°49' W 001°06'0 0.0
2017-Mar-27 12:33N 50°49' W 001°06'4 4.1
2017-Mar-27 11:34N 50°45' W 001°05'3718.3
2017-Mar-27 09:34N 50°11' W 000°41'1919.2
2017-Mar-27 08:34N 49°53' W 000°30'2020.3
2017-Mar-27 07:34N 49°34' W 000°22'1717.1
2017-Mar-27 06:33N 49°17' W 000°15'0 0.0
2017-Mar-27 05:33N 49°17' W 000°15'0 0.1
2017-Mar-27 04:33N 49°17' W 000°15'1313.5
2017-Mar-27 03:34N 49°30' W 000°21'1615.6
2017-Mar-27 02:34N 49°44' W 000°31'6014.9
2017-Mar-26 22:30N 50°42' W 001°01'8 8.3
2017-Mar-26 21:33N 50°49' W 001°06'0 0.0
2017-Mar-26 20:34N 50°49' W 001°06'5 5.4
2017-Mar-26 19:33N 50°44' W 001°03'1918.2
2017-Mar-26 18:31N 50°26' W 000°51'1818.7
2017-Mar-26 17:33N 50°09' W 000°47'1818.2
2017-Mar-26 16:33N 49°52' W 000°36'1918.8
2017-Mar-26 15:33N 49°35' W 000°23'1817.5
2017-Mar-26 14:33N 49°18' W 000°15'1 0.8
2017-Mar-26 13:33N 49°17' W 000°15'2 1.7
2017-Mar-26 12:33N 49°19' W 000°15'1918.7
2017-Mar-26 11:34N 49°37' W 000°24'1919.3
2017-Mar-26 10:33N 49°55' W 000°35'4320.1
2017-Mar-26 08:25N 50°35' W 000°57'1416.5
2017-Mar-26 07:33N 50°48' W 001°07'1 1.0
2017-Mar-26 06:33N 50°49' W 001°06'1 0.6
2017-Mar-26 05:33N 50°49' W 001°07'4714.1
2017-Mar-26 02:12N 50°04' W 000°43'1014.6
2017-Mar-26 01:33N 49°55' W 000°37'1313.2
2017-Mar-26 00:34N 49°43' W 000°30'1110.7
2017-Mar-25 23:33N 49°33' W 000°23'1110.8
2017-Mar-25 22:33N 49°23' W 000°16'6 5.7
2017-Mar-25 21:33N 49°17' W 000°15'0 0.0
2017-Mar-25 20:33N 49°17' W 000°15'1212.2
2017-Mar-25 19:33N 49°29' W 000°19'1918.5
2017-Mar-25 18:33N 49°46' W 000°30'5919.8
2017-Mar-25 15:33N 50°43' W 000°59'7 7.2
2017-Mar-25 14:34N 50°49' W 001°06'0 0.0
2017-Mar-25 13:34N 50°49' W 001°06'5 5.2
2017-Mar-25 12:34N 50°44' W 001°04'5518.1
2017-Mar-25 09:33N 49°53' W 000°33'1919.3
2017-Mar-25 08:33N 49°35' W 000°22'1818.3
2017-Mar-25 07:33N 49°17' W 000°15'0 0.1
2017-Mar-25 06:33N 49°17' W 000°15'0 0.0
2017-Mar-25 05:33N 49°17' W 000°15'1313.4
2017-Mar-25 04:33N 49°30' W 000°20'1515.0
2017-Mar-25 03:34N 49°44' W 000°29'6115.2
2017-Mar-24 23:34N 50°41' W 001°01'8 7.9
2017-Mar-24 22:33N 50°49' W 001°06'0 0.0
2017-Mar-24 21:33N 50°49' W 001°06'5 4.7
2017-Mar-24 20:33N 50°44' W 001°04'5718.9
2017-Mar-24 17:33N 49°51' W 000°32'1919.4
2017-Mar-24 16:34N 49°33' W 000°22'1616.2
2017-Mar-24 15:33N 49°17' W 000°15'0 0.1
2017-Mar-24 14:33N 49°17' W 000°15'2 2.4
2017-Mar-24 13:33N 49°20' W 000°14'1918.6
2017-Mar-24 12:33N 49°38' W 000°22'1818.0
2017-Mar-24 11:33N 49°55' W 000°32'5518.4
2017-Mar-24 08:33N 50°45' W 001°05'3 3.3
2017-Mar-24 07:34N 50°49' W 001°06'0 0.1
2017-Mar-24 06:34N 50°49' W 001°06'4912.2
2017-Mar-24 02:33N 50°03' W 000°40'1110.7
2017-Mar-24 01:33N 49°53' W 000°34'1111.2
2017-Mar-24 00:33N 49°42' W 000°28'1110.6
2017-Mar-23 23:32N 49°32' W 000°22'1010.6
2017-Mar-23 22:33N 49°23' W 000°16'5 5.2
2017-Mar-23 21:33N 49°17' W 000°15'0 0.0
2017-Mar-23 20:33N 49°17' W 000°15'1110.8
2017-Mar-23 19:33N 49°28' W 000°18'1919.5
2017-Mar-23 18:33N 49°46' W 000°29'5919.6
2017-Mar-23 15:34N 50°42' W 000°58'8 8.4
2017-Mar-23 14:33N 50°49' W 001°06'0 0.0
2017-Mar-23 13:33N 50°49' W 001°06'5 4.8
2017-Mar-23 12:33N 50°44' W 001°04'4317.3
2017-Mar-23 10:03N 50°04' W 000°37'1121.2
2017-Mar-23 09:33N 49°55' W 000°30'2120.7
2017-Mar-23 08:33N 49°35' W 000°21'1818.1
2017-Mar-23 07:34N 49°17' W 000°15'0 0.0
2017-Mar-23 06:33N 49°17' W 000°15'0 0.1
2017-Mar-23 05:34N 49°17' W 000°15'1514.7
2017-Mar-23 04:34N 49°32' W 000°20'1616.2
2017-Mar-23 03:33N 49°47' W 000°28'5714.2
2017-Mar-22 23:33N 50°40' W 000°58'10 9.9
2017-Mar-22 22:34N 50°49' W 001°06'0 0.1
2017-Mar-22 21:33N 50°49' W 001°06'0 0.0
2017-Mar-22 20:33N 50°49' W 001°06'0 0.0
2017-Mar-22 19:33N 50°49' W 001°06'4 4.4
2017-Mar-22 18:34N 50°44' W 001°04'5217.5
2017-Mar-22 15:33N 49°57' W 000°31'1818.2
2017-Mar-22 14:34N 49°39' W 000°23'2019.6
2017-Mar-22 13:33N 49°20' W 000°14'3 3.1
2017-Mar-22 12:33N 49°17' W 000°15'0 0.0
2017-Mar-22 11:33N 49°17' W 000°15'0 0.0
2017-Mar-22 10:33N 49°17' W 000°15'0 0.0
2017-Mar-22 09:33N 49°17' W 000°15'0 0.0
2017-Mar-22 08:33N 49°17' W 000°15'0 0.0
2017-Mar-22 07:33N 49°17' W 000°15'0 0.0
2017-Mar-22 06:33N 49°17' W 000°15'10 9.6
2017-Mar-22 05:33N 49°27' W 000°17'1313.4
2017-Mar-22 04:34N 49°40' W 000°24'1413.5
2017-Mar-22 03:33N 49°52' W 000°32'4813.6
2017-Mar-22 00:04N 50°37' W 000°57'714.0
2017-Mar-21 23:33N 50°43' W 001°01'6 6.1
2017-Mar-21 22:33N 50°49' W 001°06'0 0.0
2017-Mar-21 21:33N 50°49' W 001°06'4 3.9
2017-Mar-21 20:34N 50°45' W 001°05'4517.9
2017-Mar-21 18:03N 50°04' W 000°37'919.0
2017-Mar-21 17:33N 49°55' W 000°33'1919.0
2017-Mar-21 16:33N 49°37' W 000°23'1818.3
2017-Mar-21 15:33N 49°19' W 000°14'2 2.0
2017-Mar-21 14:34N 49°17' W 000°15'1 0.8
2017-Mar-21 13:33N 49°18' W 000°15'1918.7
2017-Mar-21 12:33N 49°36' W 000°23'6419.7
2017-Mar-21 09:19N 50°36' W 000°57'1115.2
2017-Mar-21 08:34N 50°46' W 001°05'3 2.7
2017-Mar-21 07:33N 50°49' W 001°06'0 0.0
2017-Mar-21 06:33N 50°49' W 001°06'5012.4
2017-Mar-21 02:33N 50°02' W 000°39'1010.3
2017-Mar-21 01:33N 49°52' W 000°34'1110.9
2017-Mar-21 00:33N 49°42' W 000°27'1111.4
2017-Mar-20 23:33N 49°32' W 000°22'1110.6
2017-Mar-20 22:33N 49°22' W 000°15'5 4.6
2017-Mar-20 21:33N 49°17' W 000°15'0 0.0
2017-Mar-20 20:33N 49°17' W 000°15'1110.8
2017-Mar-20 19:33N 49°28' W 000°15'1919.0
2017-Mar-20 18:33N 49°46' W 000°26'5618.6
2017-Mar-20 15:32N 50°38' W 000°59'1211.9
2017-Mar-20 14:33N 50°49' W 001°06'0 0.0
2017-Mar-20 13:33N 50°49' W 001°06'3 3.4
2017-Mar-20 12:34N 50°45' W 001°05'5618.8
2017-Mar-20 09:33N 49°52' W 000°38'2120.6
2017-Mar-20 08:34N 49°33' W 000°24'1717.1
2017-Mar-20 07:33N 49°17' W 000°15'0 0.0
2017-Mar-20 06:34N 49°17' W 000°15'0 0.1
2017-Mar-20 05:34N 49°17' W 000°15'1413.7
2017-Mar-20 04:34N 49°31' W 000°19'1413.9
2017-Mar-20 03:33N 49°44' W 000°23'1413.6
2017-Mar-20 02:33N 49°58' W 000°25'5016.6
2017-Mar-19 23:33N 50°43' W 000°59'7 7.3
2017-Mar-19 22:33N 50°49' W 001°06'  

Dump ship's entire track history